Racecast

Trent Mayne

Bloom-Carroll (OH) · 12 · MID STATEOH D2District XC · Compare head to head

Athlete rating 109.6 2019 XC season
Best race 112.5 XC
Races 42
Seasons 5 2014 — 2019

RankedNation #70715·OH #2464·OH D2 #1070·MID STATE #38·Team #11 ?

Rating scale ?

Cross Country

2019 XC 106.9

Bloom-Carroll (OH) · Grade 12

Date Meet Event Result Place Rating Difficulty PR/SR Flags
2019-11-16 Laverne Gibson Course 5000m 19:02.7 744th · 8th on team 112.5 +0.010 ★CR ★R CSR RSR
2019-10-26 Pickerington North HS 5000m 19:35.7 162nd · 7th on team 106.7 -0.020 ★CR CSR
2019-10-19 Hilliard Darby HS 5000m 18:37.5 50th · 7th on team 110.0 -0.031 ★PR ★CR R SR CSR RSR
2019-09-21 Dublin Jerome 5000m 19:45.8 167th · 9th on team 101.6 -0.050 ★CR CSR
2019-09-07 Watkins-Memorial HS 5000m 19:44.8 136th · 5th on team 103.7 -0.028 ★CR SR CSR RSR

2018 XC 106.7

Bloom-Carroll (OH) · Grade 11

Date Meet Event Result Place Rating Difficulty PR/SR Flags
2018-11-11 Laverne Gibson Course 5000m 20:01.1 763rd · 6th on team 107.4 +0.010 CR CSR
2018-10-20 Hilliard Darby HS 5000m 19:18.4 47th · 6th on team 107.1 -0.031 CR CSR
2018-10-13 Circleville HS 5000m 19:07.7 29th · 6th on team 109.6 -0.016 PR ★CR R SR CSR RSR
2018-10-06 Marion Harding HS 5000m 19:46.6 121st · 6th on team 105.6 -0.029 PR ★CR SR CSR
2018-09-22 Lancaster HS 5000m 19:49.4 60th · 6th on team 106.1 -0.009 PR ★CR R SR CSR RSR
2018-09-08 Watkins-Memorial HS 5000m 23:03 201st · 13th on team -0.028 CR CSR
2018-09-01 Hargus Lake 5000m 20:09.6 95th · 6th on team 104.3 -0.014 PR ★CR SR CSR RSR

2015 XC 57.6

Bloom-Carroll (OH) · Grade 8

Date Meet Event Result Place Rating Difficulty PR/SR Flags
2015-09-26 Invitational Course 1609m 13:49.4 94th · 7th on team 57.6 ★PR ★CR SR CSR RSR

2014 XC 92.9

Bloom-Carroll (OH) · Grade 7

Date Meet Event Result Place Rating Difficulty PR/SR Flags
2014-09-27 Pickerington North HS 2735m 14:49.8 181st · 9th on team 94.5 ★PR ★CR SR CSR
2014-09-20 Lancaster HS 3218m 16:08.3 189th · 3rd on team 91.9 -0.103 ★PR ★CR SR CSR
2014-09-06 Watkins-Memorial HS 3200m 16:17.1 236th · 2nd on team 88.4 -0.105 ★CR CSR
2014-09-03 Fairfield Union Athletic Complex 3200m 16:07.9 103rd · 9th on team 89.8 -0.112 ★CR CSR
2014-08-30 Ohio Christian University 3200m 15:00.5 86th · 8th on team 97.5 -0.114 ★PR ★CR R SR CSR RSR
2014-08-27 Canal Winchester 3200m 15:46.8 55th · 8th on team 95.5 -0.074 PR ★CR R SR CSR RSR

Track & Field

2019 TF 104.9

Bloom-Carroll (OH) · Grade 11

Date Meet Event Result Place Rating Difficulty PR/SR Flags
2019-05-09 MSL Buckeye JV Meet 400m 59.94 1st · 1st on team -0.035
2019-05-01 BC-CA Dual 400m 59.84 5th · 3rd on team -0.035 SR
2019-04-24 BC-BU-CSG-NY Quad 400m 1:00.74 5th · 3rd on team -0.035
2019-04-20 Bloom Carroll Invitational 400m 59.91 21st · 1st on team -0.038 SR
2019-04-16 BC-Fair-Lon-Mech Quad 400m 1:00.44 2nd · 2nd on team -0.046 SR
2019-04-02 Logan Elm/Bloom Carroll Dual hj NH -0.036
2019-04-02 Logan Elm/Bloom Carroll Dual 200m 27.92 14th · 8th on team -0.036 ★PR SR
2019-02-09 Ohio State University Buckeye HS Qualifier #4 1600m 5:30.05 41st · 2nd on team 104.9 -0.034 SR RSR
2019-01-12 OWU HS Kickoff Classic 400m 1:03.33 30th · 2nd on team -0.035 SR

2018 TF

Bloom-Carroll (OH) · Grade 10

Date Meet Event Result Place Rating Difficulty PR/SR Flags
2018-05-10 MSL Buckeye JV Meet 400m 58.44 2nd · 2nd on team -0.035 ★PR SR
2018-05-01 BC-HP-LO Tri 400m 59.14 3rd · 2nd on team -0.038 PR SR
2018-04-24 BC/BU/NY Tri 400m 59.54 4th · 4th on team -0.040 PR SR
2018-04-05 BC-BX-FU Tri 400m 1:01.44 8th · 3rd on team -0.038 PR SR

2017 TF 102.9

Bloom-Carroll (OH) · Grade 9

Date Meet Event Result Place Rating Difficulty PR/SR Flags
2017-05-02 LO/BC/LE/MI/SD Meet 800m 2:33.7 7th · 5th on team 99.4 -0.031
2017-05-02 LO/BC/LE/MI/SD Meet 1600m 5:30.58 7th · 1st on team 103.9 -0.031
2017-04-22 Bloom Carroll Invitational 800m 2:25.42 17th · 2nd on team 103.8 -0.038
2017-04-19 BC/LU/MP Tri 1600m 5:20.7 4th · 2nd on team 106.0 -0.035 ★PR R SR RSR
2017-04-15 Hank Smith Invitational 800m 2:25.29 28th · 2nd on team 103.4 -0.042 ★PR SR
2017-04-11 Canal Winchester Tri 3200m 11:53 4th · 3rd on team 103.2 -0.036 ★PR SR
2017-04-08 Fairfield Union Invitational 800m 2:27.08 17th · 1st on team 101.9 -0.042 PR SR
2017-04-04 BC/BX/FU Tri 800m 2:28.7 2nd · 2nd on team 102.3 -0.035 PR R SR RSR
2017-04-04 BC/BX/FU Tri 1600m 5:26.8 3rd · 3rd on team 104.8 -0.035 PR R SR RSR
2017-04-01 Rocky Brands Invitational 800m 2:30.63 26th · 2nd on team 100.3 -0.036 PR R SR RSR